createdAt,value
2023-03-01T00:00:16.697Z,-0.30
2023-03-01T00:03:04.348Z,-0.30
2023-03-01T00:05:50.957Z,-0.30
2023-03-01T00:08:37.909Z,-0.30
2023-03-01T00:11:26.380Z,-0.20
2023-03-01T00:14:13.593Z,-0.40
2023-03-01T00:17:00.248Z,-0.40
2023-03-01T00:19:48.123Z,-0.30
2023-03-01T00:22:34.375Z,-0.40
2023-03-01T00:25:20.818Z,-0.40
2023-03-01T00:28:07.327Z,-0.40
2023-03-01T00:30:53.834Z,-0.50
2023-03-01T00:33:40.305Z,-0.60
2023-03-01T00:36:30.837Z,-0.60
2023-03-01T00:39:18.122Z,-0.60
2023-03-01T00:42:05.283Z,-0.70
2023-03-01T00:44:51.688Z,-0.60
2023-03-01T00:47:38.058Z,-0.60
2023-03-01T00:50:25.399Z,-0.70
2023-03-01T00:53:13.326Z,-0.80
2023-03-01T00:56:01.372Z,-0.80
2023-03-01T00:58:48.009Z,-0.70
2023-03-01T01:01:34.835Z,-0.80
2023-03-01T01:04:21.722Z,-0.70
2023-03-01T01:07:08.155Z,-0.70
2023-03-01T01:09:56.157Z,-0.80
2023-03-01T01:12:42.854Z,-0.80
2023-03-01T01:15:29.204Z,-0.80
2023-03-01T01:18:17.750Z,-0.80
2023-03-01T01:21:08.981Z,-0.90
2023-03-01T01:23:55.877Z,-0.90
2023-03-01T01:26:44.196Z,-1.00
2023-03-01T01:29:30.768Z,-1.10
2023-03-01T01:32:17.241Z,-1.20
2023-03-01T01:35:03.736Z,-1.10
2023-03-01T01:37:50.274Z,-1.10
2023-03-01T01:40:36.877Z,-1.10
2023-03-01T01:43:27.629Z,-1.20
2023-03-01T01:46:27.388Z,-1.10
2023-03-01T01:49:26.515Z,-1.10
2023-03-01T01:52:18.346Z,-1.20
2023-03-01T01:55:08.812Z,-1.20
2023-03-01T01:58:00.222Z,-1.30
2023-03-01T02:00:48.652Z,-1.40
2023-03-01T02:03:38.463Z,-1.40
2023-03-01T02:06:31.376Z,-1.40
2023-03-01T02:09:22.267Z,-1.40
2023-03-01T02:12:09.111Z,-1.30
2023-03-01T02:14:58.586Z,-1.30
2023-03-01T02:17:46.458Z,-1.30
2023-03-01T02:20:38.005Z,-1.30
2023-03-01T02:23:24.959Z,-1.20
2023-03-01T02:26:20.142Z,-1.10
2023-03-01T02:29:08.501Z,-1.20
2023-03-01T02:31:57.424Z,-1.20
2023-03-01T02:34:44.722Z,-1.20
2023-03-01T02:37:31.169Z,-1.20
2023-03-01T02:40:19.089Z,-1.20
2023-03-01T02:43:09.844Z,-1.30
2023-03-01T02:46:01.206Z,-1.40
2023-03-01T02:48:50.146Z,-1.40
2023-03-01T02:51:48.672Z,-1.60
2023-03-01T02:54:41.886Z,-1.70
2023-03-01T02:57:30.461Z,-1.70
2023-03-01T03:00:21.019Z,-1.70
2023-03-01T03:03:10.218Z,-1.70
2023-03-01T03:05:56.931Z,-1.70
2023-03-01T03:08:43.338Z,-1.60
2023-03-01T03:11:29.780Z,-1.70
2023-03-01T03:14:18.127Z,-1.70
2023-03-01T03:17:07.572Z,-1.70
2023-03-01T03:19:55.735Z,-1.80
2023-03-01T03:22:42.831Z,-1.70
2023-03-01T03:25:30.950Z,-1.70
2023-03-01T03:28:17.915Z,-1.70
2023-03-01T03:31:04.657Z,-1.70
2023-03-01T03:33:51.573Z,-1.70
2023-03-01T03:36:39.594Z,-1.60
2023-03-01T03:39:26.192Z,-1.60
2023-03-01T03:42:12.907Z,-1.60
2023-03-01T03:44:59.240Z,-1.60
2023-03-01T03:47:46.451Z,-1.60
2023-03-01T03:50:34.029Z,-1.60
2023-03-01T03:53:23.301Z,-1.70
2023-03-01T03:56:09.921Z,-1.80
2023-03-01T03:58:56.790Z,-1.80
2023-03-01T04:01:43.297Z,-1.90
2023-03-01T04:04:29.736Z,-2.00
2023-03-01T04:07:16.271Z,-2.10
2023-03-01T04:10:04.485Z,-2.10
2023-03-01T04:12:50.998Z,-2.20
2023-03-01T04:15:38.329Z,-2.20
2023-03-01T04:18:26.114Z,-2.30
2023-03-01T04:21:13.177Z,-2.40
2023-03-01T04:23:59.747Z,-2.40
2023-03-01T04:26:47.581Z,-2.50
2023-03-01T04:29:33.980Z,-2.50
2023-03-01T04:32:20.529Z,-2.60
2023-03-01T04:35:07.132Z,-2.60
2023-03-01T04:37:53.927Z,-2.60
2023-03-01T04:40:40.420Z,-2.50
2023-03-01T04:43:28.472Z,-2.60
2023-03-01T04:46:17.880Z,-2.70
2023-03-01T04:49:04.990Z,-2.70
2023-03-01T04:51:51.374Z,-2.70
2023-03-01T04:54:38.458Z,-2.50
2023-03-01T04:57:25.234Z,-2.60
2023-03-01T05:00:24.713Z,-2.50
2023-03-01T05:03:11.519Z,-2.60
2023-03-01T05:06:01.601Z,-2.60
2023-03-01T05:08:47.972Z,-2.60
2023-03-01T05:11:36.862Z,-2.80
2023-03-01T05:14:23.867Z,-2.70
2023-03-01T05:17:12.005Z,-2.80
2023-03-01T05:20:00.579Z,-2.80
2023-03-01T05:22:46.986Z,-2.80
2023-03-01T05:25:34.386Z,-2.80
2023-03-01T05:28:22.002Z,-2.80
2023-03-01T05:31:10.576Z,-2.90
2023-03-01T05:33:58.553Z,-2.90
2023-03-01T05:36:45.108Z,-2.90
2023-03-01T05:39:32.575Z,-2.80
2023-03-01T05:42:19.498Z,-2.80
2023-03-01T05:45:10.628Z,-2.70
2023-03-01T05:47:57.322Z,-2.70
2023-03-01T05:50:46.608Z,-2.70
2023-03-01T05:53:32.960Z,-2.70
2023-03-01T05:56:19.491Z,-2.70
2023-03-01T05:59:06.976Z,-2.70
2023-03-01T06:01:54.481Z,-2.70
2023-03-01T06:04:41.195Z,-2.70
2023-03-01T06:07:29.225Z,-2.60
2023-03-01T06:10:16.623Z,-2.70
2023-03-01T06:13:03.137Z,-2.70
2023-03-01T06:15:49.649Z,-2.70
2023-03-01T06:18:36.009Z,-2.60
2023-03-01T06:21:22.429Z,-2.50
2023-03-01T06:24:10.407Z,-2.40
2023-03-01T06:26:56.859Z,-2.30
2023-03-01T06:29:43.749Z,-2.10
2023-03-01T06:32:32.732Z,-2.00
2023-03-01T06:35:21.173Z,-1.80
2023-03-01T06:38:08.277Z,-1.50
2023-03-01T06:40:57.495Z,-1.20
2023-03-01T06:43:44.151Z,-0.90
2023-03-01T06:46:30.930Z,-0.70
2023-03-01T06:49:18.743Z,-0.40
2023-03-01T06:52:05.561Z,-0.30
2023-03-01T06:54:52.145Z,-0.20
2023-03-01T06:57:40.158Z,0.10
2023-03-01T07:00:27.958Z,0.30
2023-03-01T07:03:14.487Z,0.50
2023-03-01T07:06:00.889Z,0.60
2023-03-01T07:08:47.258Z,0.90
2023-03-01T07:11:33.858Z,1.00
2023-03-01T07:14:21.815Z,1.10
2023-03-01T07:17:08.469Z,1.30
2023-03-01T07:19:55.287Z,1.40
2023-03-01T07:22:42.953Z,1.50
2023-03-01T07:25:29.545Z,1.40
2023-03-01T07:28:16.060Z,1.70
2023-03-01T07:31:04.910Z,1.80
2023-03-01T07:33:51.488Z,2.00
2023-03-01T07:36:37.997Z,2.00
2023-03-01T07:39:24.992Z,2.30
2023-03-01T07:42:11.742Z,2.50
2023-03-01T07:44:58.120Z,2.50
2023-03-01T07:47:45.903Z,2.60
2023-03-01T07:50:32.356Z,2.70
2023-03-01T07:53:18.894Z,2.90
2023-03-01T07:56:06.580Z,3.00
2023-03-01T07:58:53.381Z,3.00
2023-03-01T08:01:39.845Z,3.10
2023-03-01T08:04:27.737Z,3.20
2023-03-01T08:07:14.495Z,3.40
2023-03-01T08:10:00.880Z,3.50
2023-03-01T08:12:47.317Z,3.70
2023-03-01T08:15:33.986Z,4.10
2023-03-01T08:18:21.428Z,4.40
2023-03-01T08:21:11.146Z,4.60
2023-03-01T08:23:57.880Z,4.60
2023-03-01T08:26:44.475Z,4.80
2023-03-01T08:29:32.753Z,4.90
2023-03-01T08:32:19.443Z,4.90
2023-03-01T08:35:07.286Z,4.90
2023-03-01T08:37:54.898Z,4.90
2023-03-01T08:40:41.246Z,5.00
2023-03-01T08:43:27.900Z,4.90
2023-03-01T08:46:14.882Z,4.50
2023-03-01T08:49:02.432Z,4.30
2023-03-01T08:51:49.964Z,4.10
2023-03-01T08:54:38.388Z,4.60
2023-03-01T08:57:24.754Z,4.80
2023-03-01T09:00:15.854Z,4.90
2023-03-01T09:03:02.728Z,5.10
2023-03-01T09:05:51.104Z,5.30
2023-03-01T09:08:38.044Z,5.60
2023-03-01T09:11:25.801Z,5.70
2023-03-01T09:14:13.193Z,5.40
2023-03-01T09:17:03.843Z,5.20
2023-03-01T09:19:50.502Z,4.70
2023-03-01T09:22:36.986Z,4.80
2023-03-01T09:25:23.868Z,5.00
2023-03-01T09:28:24.191Z,5.00
2023-03-01T09:31:16.379Z,5.10
2023-03-01T09:34:02.800Z,5.20
2023-03-01T09:36:49.136Z,5.20
2023-03-01T09:39:35.618Z,5.20
2023-03-01T09:42:22.109Z,5.40
2023-03-01T09:45:17.165Z,5.60
2023-03-01T09:48:05.993Z,5.60
2023-03-01T09:50:53.817Z,5.30
2023-03-01T09:53:41.033Z,4.90
2023-03-01T09:56:35.523Z,4.60
2023-03-01T09:59:28.744Z,4.70
2023-03-01T10:02:28.212Z,4.90
2023-03-01T10:05:37.280Z,5.30
2023-03-01T10:08:34.380Z,5.60
2023-03-01T10:11:25.313Z,5.50
2023-03-01T10:14:26.562Z,5.40
2023-03-01T10:17:28.225Z,5.50
2023-03-01T10:20:23.284Z,5.70
2023-03-01T10:23:11.071Z,5.10
2023-03-01T10:26:31.062Z,5.10
2023-03-01T10:29:17.990Z,5.00
2023-03-01T10:32:07.427Z,5.30
2023-03-01T10:34:55.457Z,5.50
2023-03-01T10:37:58.857Z,5.10
2023-03-01T10:40:58.283Z,5.20
2023-03-01T10:43:48.503Z,5.20
2023-03-01T10:46:36.914Z,5.10
2023-03-01T10:49:26.609Z,5.10
2023-03-01T10:52:22.874Z,4.80
2023-03-01T10:55:27.189Z,4.90
2023-03-01T10:58:21.454Z,5.10
2023-03-01T11:01:26.929Z,5.20
2023-03-01T11:04:16.214Z,5.10
2023-03-01T11:07:04.136Z,5.30
2023-03-01T11:09:52.104Z,5.20
2023-03-01T11:12:38.895Z,4.90
2023-03-01T11:15:28.496Z,4.80
2023-03-01T11:18:28.664Z,4.90
2023-03-01T11:21:20.574Z,4.70
2023-03-01T11:24:12.206Z,4.70
2023-03-01T11:27:03.874Z,4.80
2023-03-01T11:29:56.586Z,4.90
2023-03-01T11:32:46.021Z,5.00
2023-03-01T11:35:36.558Z,4.90
2023-03-01T11:38:25.472Z,4.90
2023-03-01T11:41:17.591Z,5.00
2023-03-01T11:44:11.924Z,5.00
2023-03-01T11:47:15.137Z,5.00
2023-03-01T11:50:15.163Z,5.00
2023-03-01T11:53:22.126Z,5.00
2023-03-01T11:56:23.876Z,4.90
2023-03-01T11:59:34.743Z,4.90
2023-03-01T12:02:38.537Z,5.00
2023-03-01T12:05:52.879Z,5.10
2023-03-01T12:08:43.825Z,5.10
2023-03-01T12:11:43.673Z,5.10
2023-03-01T12:14:48.208Z,5.00
2023-03-01T12:17:49.237Z,5.10
2023-03-01T12:20:45.219Z,5.10
2023-03-01T12:23:56.663Z,5.10
2023-03-01T12:26:53.309Z,5.20
2023-03-01T12:29:47.818Z,5.10
2023-03-01T12:32:49.127Z,5.00
2023-03-01T12:35:55.509Z,5.00
2023-03-01T12:38:44.535Z,5.10
2023-03-01T12:41:48.132Z,5.00
2023-03-01T12:44:50.069Z,5.20
2023-03-01T12:47:59.722Z,5.20
2023-03-01T12:50:49.439Z,5.20
2023-03-01T12:53:40.939Z,5.30
2023-03-01T12:56:31.484Z,5.30
2023-03-01T12:59:23.979Z,5.30
2023-03-01T13:02:22.734Z,5.30
2023-03-01T13:05:25.481Z,5.30
2023-03-01T13:08:18.871Z,5.30
2023-03-01T13:11:07.763Z,5.30
2023-03-01T13:13:55.525Z,5.40
2023-03-01T13:16:46.026Z,5.40
2023-03-01T13:19:36.174Z,5.40
2023-03-01T13:22:33.308Z,5.40
2023-03-01T13:25:22.258Z,5.40
2023-03-01T13:28:43.751Z,5.40
2023-03-01T13:32:05.518Z,5.50
2023-03-01T13:34:56.515Z,5.60
2023-03-01T13:37:43.427Z,5.60
2023-03-01T13:41:01.248Z,5.60
2023-03-01T13:43:49.799Z,5.70
2023-03-01T13:46:36.586Z,5.70
2023-03-01T13:49:25.720Z,5.70
2023-03-01T13:52:41.279Z,5.70
2023-03-01T13:55:36.886Z,5.70
2023-03-01T13:58:27.128Z,5.80
2023-03-01T14:01:24.416Z,5.70
2023-03-01T14:04:23.674Z,5.70
2023-03-01T14:07:14.546Z,5.80
2023-03-01T14:10:05.780Z,5.80
2023-03-01T14:13:01.307Z,6.00
2023-03-01T14:15:59.755Z,6.00
2023-03-01T14:18:54.580Z,6.00
2023-03-01T14:21:40.966Z,6.00
2023-03-01T14:24:28.272Z,6.00
2023-03-01T14:27:16.904Z,6.10
2023-03-01T14:30:05.406Z,6.10
2023-03-01T14:32:56.777Z,6.10
2023-03-01T14:35:43.317Z,6.20
2023-03-01T14:38:36.693Z,6.30
2023-03-01T14:41:25.606Z,6.30
2023-03-01T14:44:20.479Z,6.40
2023-03-01T14:47:07.741Z,6.30
2023-03-01T14:49:59.484Z,6.30
2023-03-01T14:52:50.377Z,6.30
2023-03-01T14:55:39.345Z,6.30
2023-03-01T14:58:27.469Z,6.30
2023-03-01T15:01:17.816Z,6.30
2023-03-01T15:04:05.031Z,6.30
2023-03-01T15:06:53.522Z,6.30
2023-03-01T15:09:42.636Z,6.20
2023-03-01T15:12:41.666Z,6.30
2023-03-01T15:15:37.933Z,6.30
2023-03-01T15:18:30.069Z,6.20
2023-03-01T15:21:20.281Z,6.20
2023-03-01T15:24:12.853Z,6.20
2023-03-01T15:27:02.810Z,6.30
2023-03-01T15:29:52.220Z,6.20
2023-03-01T15:32:43.652Z,6.10
2023-03-01T15:35:43.813Z,6.10
2023-03-01T15:38:39.132Z,6.10
2023-03-01T15:41:31.910Z,6.10
2023-03-01T15:44:19.898Z,6.10
2023-03-01T15:47:24.969Z,6.00
2023-03-01T15:50:19.597Z,6.00
2023-03-01T15:53:11.993Z,6.00
2023-03-01T15:56:00.461Z,5.90
2023-03-01T15:58:47.130Z,5.90
2023-03-01T16:01:35.731Z,5.80
2023-03-01T16:04:24.854Z,5.90
2023-03-01T16:07:12.136Z,5.80
2023-03-01T16:09:59.819Z,5.80
2023-03-01T16:12:48.160Z,5.70
2023-03-01T16:15:36.690Z,5.70
2023-03-01T16:18:23.231Z,5.70
2023-03-01T16:21:12.653Z,5.70
2023-03-01T16:23:59.308Z,5.50
2023-03-01T16:26:47.221Z,5.50
2023-03-01T16:29:34.470Z,5.50
2023-03-01T16:32:20.805Z,5.40
2023-03-01T16:35:08.322Z,5.40
2023-03-01T16:37:55.410Z,5.30
2023-03-01T16:40:43.501Z,5.20
2023-03-01T16:43:32.036Z,5.30
2023-03-01T16:46:21.375Z,5.10
2023-03-01T16:49:07.625Z,5.10
2023-03-01T16:51:55.866Z,5.10
2023-03-01T16:54:42.460Z,5.00
2023-03-01T16:57:31.469Z,4.90
2023-03-01T17:00:19.917Z,4.90
2023-03-01T17:03:06.663Z,4.70
2023-03-01T17:05:53.553Z,4.70
2023-03-01T17:08:41.035Z,4.70
2023-03-01T17:11:29.486Z,4.50
2023-03-01T17:14:16.481Z,4.40
2023-03-01T17:17:04.488Z,4.50
2023-03-01T17:19:51.346Z,4.30
2023-03-01T17:22:37.967Z,4.40
2023-03-01T17:25:24.786Z,4.30
2023-03-01T17:28:11.913Z,4.20
2023-03-01T17:30:58.505Z,4.10
2023-03-01T17:33:46.249Z,4.00
2023-03-01T17:36:41.647Z,4.00
2023-03-01T17:39:35.926Z,4.00
2023-03-01T17:42:22.320Z,3.90
2023-03-01T17:45:09.649Z,3.90
2023-03-01T17:47:56.236Z,3.80
2023-03-01T17:50:44.176Z,3.80
2023-03-01T17:53:30.540Z,3.70
2023-03-01T17:56:17.195Z,3.60
2023-03-01T17:59:04.840Z,3.70
2023-03-01T18:01:52.263Z,3.70
2023-03-01T18:04:38.990Z,3.70
2023-03-01T18:07:28.871Z,3.70
2023-03-01T18:10:15.281Z,3.70
2023-03-01T18:13:01.721Z,3.70
2023-03-01T18:15:48.218Z,3.60
2023-03-01T18:18:34.774Z,3.60
2023-03-01T18:21:21.451Z,3.60
2023-03-01T18:24:09.684Z,3.50
2023-03-01T18:26:56.208Z,3.50
2023-03-01T18:29:42.608Z,3.50
2023-03-01T18:32:29.383Z,3.50
2023-03-01T18:35:15.918Z,3.50
2023-03-01T18:38:02.383Z,3.50
2023-03-01T18:40:50.055Z,3.40
2023-03-01T18:43:36.464Z,3.40
2023-03-01T18:46:22.939Z,3.40
2023-03-01T18:49:09.507Z,3.30
2023-03-01T18:51:56.646Z,3.40
2023-03-01T18:54:43.282Z,3.30
2023-03-01T18:57:31.329Z,3.30
2023-03-01T19:00:19.108Z,3.30
2023-03-01T19:03:05.617Z,3.20
2023-03-01T19:05:52.418Z,3.20
2023-03-01T19:08:40.448Z,3.20
2023-03-01T19:11:32.592Z,3.30
2023-03-01T19:14:20.440Z,3.30
2023-03-01T19:17:06.878Z,3.20
2023-03-01T19:19:53.472Z,3.20
2023-03-01T19:22:40.258Z,3.20
2023-03-01T19:25:27.055Z,3.20
2023-03-01T19:28:13.547Z,3.20
2023-03-01T19:31:02.449Z,3.10
2023-03-01T19:33:50.094Z,3.10
2023-03-01T19:36:36.900Z,3.10
2023-03-01T19:39:23.588Z,3.20
2023-03-01T19:42:10.221Z,3.20
2023-03-01T19:44:56.590Z,3.00
2023-03-01T19:47:48.162Z,3.00
2023-03-01T19:50:34.675Z,2.90
2023-03-01T19:53:21.855Z,2.90
2023-03-01T19:56:09.822Z,2.90
2023-03-01T19:59:00.401Z,2.80
2023-03-01T20:01:47.109Z,2.80
2023-03-01T20:04:34.863Z,2.80
2023-03-01T20:07:21.621Z,2.70
2023-03-01T20:10:08.928Z,2.60
2023-03-01T20:12:55.768Z,2.70
2023-03-01T20:15:43.766Z,2.60
2023-03-01T20:18:30.580Z,2.60
2023-03-01T20:21:24.360Z,2.60
2023-03-01T20:24:11.455Z,2.60
2023-03-01T20:26:57.850Z,2.60
2023-03-01T20:29:45.857Z,2.60
2023-03-01T20:32:32.634Z,2.60
2023-03-01T20:35:19.379Z,2.50
2023-03-01T20:38:07.845Z,2.60
2023-03-01T20:40:59.456Z,2.50
2023-03-01T20:43:53.641Z,2.60
2023-03-01T20:46:40.372Z,2.50
2023-03-01T20:49:26.863Z,2.50
2023-03-01T20:52:13.266Z,2.50
2023-03-01T20:55:00.982Z,2.50
2023-03-01T20:57:47.390Z,2.50
2023-03-01T21:00:33.943Z,2.40
2023-03-01T21:03:20.334Z,2.40
2023-03-01T21:06:07.688Z,2.40
2023-03-01T21:08:55.832Z,2.30
2023-03-01T21:11:43.985Z,2.30
2023-03-01T21:14:38.698Z,2.10
2023-03-01T21:17:25.351Z,2.00
2023-03-01T21:20:12.577Z,2.00
2023-03-01T21:22:58.987Z,1.90
2023-03-01T21:25:45.422Z,1.90
2023-03-01T21:28:34.598Z,1.90
2023-03-01T21:31:23.068Z,1.90
2023-03-01T21:34:09.639Z,1.90
2023-03-01T21:36:56.038Z,1.90
2023-03-01T21:39:42.431Z,1.90
2023-03-01T21:42:28.668Z,1.90
2023-03-01T21:45:16.631Z,1.90
2023-03-01T21:48:03.067Z,1.90
2023-03-01T21:50:56.808Z,1.90
2023-03-01T21:53:43.869Z,1.80
2023-03-01T21:56:34.166Z,1.70
2023-03-01T21:59:22.377Z,1.70
2023-03-01T22:02:14.240Z,1.70
2023-03-01T22:05:00.873Z,1.60
2023-03-01T22:07:47.310Z,1.50
2023-03-01T22:10:33.838Z,1.40
2023-03-01T22:13:20.731Z,1.40
2023-03-01T22:16:08.156Z,1.30
2023-03-01T22:18:56.301Z,1.30
2023-03-01T22:21:45.296Z,1.30
2023-03-01T22:24:31.781Z,1.40
2023-03-01T22:27:18.237Z,1.40
2023-03-01T22:30:06.415Z,1.40
2023-03-01T22:32:53.136Z,1.50
2023-03-01T22:35:44.163Z,1.50
2023-03-01T22:38:30.672Z,1.40
2023-03-01T22:41:17.216Z,1.40
2023-03-01T22:44:04.439Z,1.50
2023-03-01T22:46:51.678Z,1.50
2023-03-01T22:49:38.503Z,1.50
2023-03-01T22:52:26.441Z,1.50
2023-03-01T22:55:13.640Z,1.50
2023-03-01T22:57:59.904Z,1.40
2023-03-01T23:00:46.372Z,1.40
2023-03-01T23:03:33.139Z,1.30
2023-03-01T23:06:21.536Z,1.40
2023-03-01T23:09:13.809Z,1.30
2023-03-01T23:12:02.328Z,1.30
2023-03-01T23:14:48.877Z,1.30
2023-03-01T23:17:35.442Z,1.40
2023-03-01T23:20:22.093Z,1.40
2023-03-01T23:23:08.996Z,1.30
2023-03-01T23:25:58.541Z,1.20
2023-03-01T23:28:45.599Z,1.20
2023-03-01T23:31:32.284Z,1.20
2023-03-01T23:34:19.144Z,1.20
2023-03-01T23:37:05.900Z,1.30
2023-03-01T23:39:52.398Z,1.30
2023-03-01T23:42:40.141Z,1.30
2023-03-01T23:45:26.570Z,1.30
2023-03-01T23:48:14.068Z,1.30
2023-03-01T23:51:05.146Z,1.20
2023-03-01T23:53:55.256Z,1.30
2023-03-01T23:56:43.522Z,1.30
2023-03-01T23:59:31.565Z,1.20
